sensor_id;sensor_type;location;lat;lon;timestamp;P1;durP1;ratioP1;P2;durP2;ratioP2
56242;SDS011;42155;53.096;23.226;2023-04-29T00:01:56;30.55;;;13.52;;
56242;SDS011;42155;53.096;23.226;2023-04-29T00:03:56;30.23;;;13.82;;
56242;SDS011;42155;53.096;23.226;2023-04-29T00:05:57;32.28;;;13.93;;
56242;SDS011;42155;53.096;23.226;2023-04-29T00:07:57;30.88;;;13.75;;
56242;SDS011;42155;53.096;23.226;2023-04-29T00:09:58;37.65;;;14.23;;
56242;SDS011;42155;53.096;23.226;2023-04-29T00:11:59;34.40;;;13.80;;
56242;SDS011;42155;53.096;23.226;2023-04-29T00:13:59;29.48;;;14.55;;
56242;SDS011;42155;53.096;23.226;2023-04-29T00:15:59;29.50;;;13.85;;
56242;SDS011;42155;53.096;23.226;2023-04-29T00:18:00;31.77;;;13.45;;
56242;SDS011;42155;53.096;23.226;2023-04-29T00:20:00;39.55;;;14.02;;
56242;SDS011;42155;53.096;23.226;2023-04-29T00:22:00;32.78;;;14.55;;
56242;SDS011;42155;53.096;23.226;2023-04-29T00:24:01;31.88;;;14.13;;
56242;SDS011;42155;53.096;23.226;2023-04-29T00:26:01;35.95;;;14.18;;
56242;SDS011;42155;53.096;23.226;2023-04-29T00:28:02;31.55;;;13.40;;
56242;SDS011;42155;53.096;23.226;2023-04-29T00:30:02;30.13;;;12.55;;
56242;SDS011;42155;53.096;23.226;2023-04-29T00:32:03;29.92;;;12.90;;
56242;SDS011;42155;53.096;23.226;2023-04-29T00:34:03;26.45;;;13.20;;
56242;SDS011;42155;53.096;23.226;2023-04-29T00:36:04;33.42;;;13.55;;
56242;SDS011;42155;53.096;23.226;2023-04-29T00:38:04;32.58;;;13.63;;
56242;SDS011;42155;53.096;23.226;2023-04-29T00:40:05;33.03;;;15.23;;
56242;SDS011;42155;53.096;23.226;2023-04-29T00:42:06;38.35;;;14.20;;
56242;SDS011;42155;53.096;23.226;2023-04-29T00:44:07;32.08;;;14.68;;
56242;SDS011;42155;53.096;23.226;2023-04-29T00:46:07;32.58;;;14.00;;
56242;SDS011;42155;53.096;23.226;2023-04-29T00:48:07;41.78;;;15.07;;
56242;SDS011;42155;53.096;23.226;2023-04-29T00:50:08;38.90;;;16.02;;
56242;SDS011;42155;53.096;23.226;2023-04-29T00:52:09;36.58;;;14.75;;
56242;SDS011;42155;53.096;23.226;2023-04-29T00:54:10;38.55;;;14.43;;
56242;SDS011;42155;53.096;23.226;2023-04-29T00:56:11;32.70;;;13.18;;
56242;SDS011;42155;53.096;23.226;2023-04-29T00:58:12;35.42;;;14.20;;
56242;SDS011;42155;53.096;23.226;2023-04-29T01:00:12;25.60;;;12.40;;
56242;SDS011;42155;53.096;23.226;2023-04-29T01:02:13;32.38;;;13.10;;
56242;SDS011;42155;53.096;23.226;2023-04-29T01:04:14;35.30;;;13.15;;
56242;SDS011;42155;53.096;23.226;2023-04-29T01:08:42;33.03;;;13.43;;
56242;SDS011;42155;53.096;23.226;2023-04-29T01:11:11;26.92;;;12.52;;
56242;SDS011;42155;53.096;23.226;2023-04-29T01:13:30;30.25;;;12.65;;
56242;SDS011;42155;53.096;23.226;2023-04-29T01:16:20;26.73;;;11.60;;
56242;SDS011;42155;53.096;23.226;2023-04-29T01:18:04;32.13;;;12.00;;
56242;SDS011;42155;53.096;23.226;2023-04-29T01:20:22;27.45;;;11.52;;
56242;SDS011;42155;53.096;23.226;2023-04-29T01:22:24;25.83;;;11.82;;
56242;SDS011;42155;53.096;23.226;2023-04-29T01:24:24;24.17;;;11.38;;
56242;SDS011;42155;53.096;23.226;2023-04-29T01:26:25;26.20;;;11.48;;
56242;SDS011;42155;53.096;23.226;2023-04-29T01:30:50;26.80;;;10.80;;
56242;SDS011;42155;53.096;23.226;2023-04-29T01:37:18;32.60;;;11.32;;
56242;SDS011;42155;53.096;23.226;2023-04-29T01:39:36;26.80;;;10.18;;
56242;SDS011;42155;53.096;23.226;2023-04-29T01:41:46;25.98;;;9.95;;
56242;SDS011;42155;53.096;23.226;2023-04-29T01:43:56;26.23;;;9.65;;
56242;SDS011;42155;53.096;23.226;2023-04-29T01:45:58;22.52;;;9.25;;
56242;SDS011;42155;53.096;23.226;2023-04-29T01:48:00;23.48;;;9.27;;
56242;SDS011;42155;53.096;23.226;2023-04-29T01:50:01;19.83;;;8.68;;
56242;SDS011;42155;53.096;23.226;2023-04-29T01:52:02;23.02;;;8.52;;
56242;SDS011;42155;53.096;23.226;2023-04-29T01:54:02;24.23;;;9.30;;
56242;SDS011;42155;53.096;23.226;2023-04-29T01:56:02;21.45;;;8.48;;
56242;SDS011;42155;53.096;23.226;2023-04-29T01:58:03;23.25;;;8.98;;
56242;SDS011;42155;53.096;23.226;2023-04-29T02:00:03;21.67;;;8.55;;
56242;SDS011;42155;53.096;23.226;2023-04-29T02:02:04;18.23;;;8.77;;
56242;SDS011;42155;53.096;23.226;2023-04-29T02:04:04;19.67;;;9.25;;
56242;SDS011;42155;53.096;23.226;2023-04-29T02:06:05;18.30;;;8.55;;
56242;SDS011;42155;53.096;23.226;2023-04-29T02:08:06;19.40;;;7.28;;
56242;SDS011;42155;53.096;23.226;2023-04-29T02:10:06;23.92;;;11.23;;
56242;SDS011;42155;53.096;23.226;2023-04-29T02:12:07;42.85;;;18.15;;
56242;SDS011;42155;53.096;23.226;2023-04-29T02:14:07;76.28;;;27.88;;
56242;SDS011;42155;53.096;23.226;2023-04-29T02:16:08;78.00;;;28.65;;
56242;SDS011;42155;53.096;23.226;2023-04-29T02:18:13;65.03;;;26.02;;
56242;SDS011;42155;53.096;23.226;2023-04-29T02:20:13;59.33;;;22.02;;
56242;SDS011;42155;53.096;23.226;2023-04-29T02:22:14;46.95;;;18.20;;
56242;SDS011;42155;53.096;23.226;2023-04-29T02:24:14;43.75;;;17.58;;
56242;SDS011;42155;53.096;23.226;2023-04-29T02:26:15;38.33;;;14.82;;
56242;SDS011;42155;53.096;23.226;2023-04-29T02:28:15;37.90;;;14.25;;
56242;SDS011;42155;53.096;23.226;2023-04-29T02:30:15;36.97;;;14.68;;
56242;SDS011;42155;53.096;23.226;2023-04-29T02:32:16;39.55;;;14.13;;
56242;SDS011;42155;53.096;23.226;2023-04-29T02:34:16;30.48;;;13.00;;
56242;SDS011;42155;53.096;23.226;2023-04-29T02:36:16;32.53;;;13.43;;
56242;SDS011;42155;53.096;23.226;2023-04-29T02:38:17;32.60;;;12.95;;
56242;SDS011;42155;53.096;23.226;2023-04-29T02:40:17;35.08;;;13.77;;
56242;SDS011;42155;53.096;23.226;2023-04-29T02:42:17;34.92;;;11.88;;
56242;SDS011;42155;53.096;23.226;2023-04-29T02:44:18;25.35;;;10.85;;
56242;SDS011;42155;53.096;23.226;2023-04-29T02:46:18;23.63;;;9.43;;
56242;SDS011;42155;53.096;23.226;2023-04-29T02:48:18;24.38;;;9.52;;
56242;SDS011;42155;53.096;23.226;2023-04-29T02:50:19;23.40;;;9.48;;
56242;SDS011;42155;53.096;23.226;2023-04-29T02:52:19;24.15;;;9.55;;
56242;SDS011;42155;53.096;23.226;2023-04-29T02:54:19;24.55;;;9.40;;
56242;SDS011;42155;53.096;23.226;2023-04-29T02:56:20;23.02;;;9.95;;
56242;SDS011;42155;53.096;23.226;2023-04-29T02:58:20;21.80;;;8.82;;
56242;SDS011;42155;53.096;23.226;2023-04-29T03:00:20;15.57;;;7.85;;
56242;SDS011;42155;53.096;23.226;2023-04-29T03:02:21;18.40;;;8.63;;
56242;SDS011;42155;53.096;23.226;2023-04-29T03:04:21;18.13;;;8.52;;
56242;SDS011;42155;53.096;23.226;2023-04-29T03:06:21;17.75;;;8.02;;
56242;SDS011;42155;53.096;23.226;2023-04-29T03:08:22;18.27;;;7.53;;
56242;SDS011;42155;53.096;23.226;2023-04-29T03:10:22;17.33;;;8.48;;
56242;SDS011;42155;53.096;23.226;2023-04-29T03:12:23;16.73;;;7.40;;
56242;SDS011;42155;53.096;23.226;2023-04-29T03:14:23;19.83;;;8.63;;
56242;SDS011;42155;53.096;23.226;2023-04-29T03:16:23;15.95;;;7.88;;
56242;SDS011;42155;53.096;23.226;2023-04-29T03:18:24;17.67;;;7.68;;
56242;SDS011;42155;53.096;23.226;2023-04-29T03:20:24;17.02;;;7.85;;
56242;SDS011;42155;53.096;23.226;2023-04-29T03:22:24;15.48;;;7.20;;
56242;SDS011;42155;53.096;23.226;2023-04-29T03:24:25;16.65;;;7.85;;
56242;SDS011;42155;53.096;23.226;2023-04-29T03:26:25;19.55;;;7.15;;
56242;SDS011;42155;53.096;23.226;2023-04-29T03:28:25;21.27;;;9.07;;
56242;SDS011;42155;53.096;23.226;2023-04-29T03:30:26;16.63;;;8.00;;
56242;SDS011;42155;53.096;23.226;2023-04-29T03:32:26;16.77;;;7.97;;
56242;SDS011;42155;53.096;23.226;2023-04-29T03:34:27;15.50;;;7.60;;
56242;SDS011;42155;53.096;23.226;2023-04-29T03:36:27;16.35;;;7.75;;
56242;SDS011;42155;53.096;23.226;2023-04-29T03:38:27;19.55;;;8.90;;
56242;SDS011;42155;53.096;23.226;2023-04-29T03:40:28;18.35;;;8.82;;
56242;SDS011;42155;53.096;23.226;2023-04-29T03:42:28;33.03;;;17.00;;
56242;SDS011;42155;53.096;23.226;2023-04-29T03:44:28;28.27;;;13.00;;
56242;SDS011;42155;53.096;23.226;2023-04-29T03:46:29;23.38;;;10.63;;
56242;SDS011;42155;53.096;23.226;2023-04-29T03:48:29;22.05;;;8.60;;
56242;SDS011;42155;53.096;23.226;2023-04-29T03:50:29;19.17;;;8.10;;
56242;SDS011;42155;53.096;23.226;2023-04-29T03:52:30;15.75;;;7.25;;
56242;SDS011;42155;53.096;23.226;2023-04-29T03:54:30;18.67;;;6.97;;
56242;SDS011;42155;53.096;23.226;2023-04-29T03:56:31;22.98;;;7.30;;
56242;SDS011;42155;53.096;23.226;2023-04-29T03:58:31;18.80;;;7.90;;
56242;SDS011;42155;53.096;23.226;2023-04-29T04:00:31;15.10;;;7.70;;
56242;SDS011;42155;53.096;23.226;2023-04-29T04:02:32;21.40;;;8.45;;
56242;SDS011;42155;53.096;23.226;2023-04-29T04:04:32;18.05;;;7.63;;
56242;SDS011;42155;53.096;23.226;2023-04-29T04:06:32;18.23;;;8.13;;
56242;SDS011;42155;53.096;23.226;2023-04-29T04:08:33;11.98;;;6.28;;
56242;SDS011;42155;53.096;23.226;2023-04-29T04:10:33;12.10;;;5.80;;
56242;SDS011;42155;53.096;23.226;2023-04-29T04:12:34;9.85;;;5.63;;
56242;SDS011;42155;53.096;23.226;2023-04-29T04:14:34;10.65;;;4.90;;
56242;SDS011;42155;53.096;23.226;2023-04-29T04:16:34;12.65;;;5.00;;
56242;SDS011;42155;53.096;23.226;2023-04-29T04:18:35;9.25;;;5.45;;
56242;SDS011;42155;53.096;23.226;2023-04-29T04:20:36;10.38;;;5.50;;
56242;SDS011;42155;53.096;23.226;2023-04-29T04:22:37;12.93;;;6.85;;
56242;SDS011;42155;53.096;23.226;2023-04-29T04:24:37;10.55;;;5.55;;
56242;SDS011;42155;53.096;23.226;2023-04-29T04:26:37;9.45;;;5.20;;
56242;SDS011;42155;53.096;23.226;2023-04-29T04:28:38;11.68;;;5.50;;
56242;SDS011;42155;53.096;23.226;2023-04-29T04:30:38;8.70;;;4.90;;
56242;SDS011;42155;53.096;23.226;2023-04-29T04:32:39;11.10;;;5.30;;
56242;SDS011;42155;53.096;23.226;2023-04-29T04:34:39;8.13;;;5.00;;
56242;SDS011;42155;53.096;23.226;2023-04-29T04:36:39;9.40;;;5.22;;
56242;SDS011;42155;53.096;23.226;2023-04-29T04:38:40;10.52;;;5.45;;
56242;SDS011;42155;53.096;23.226;2023-04-29T04:40:40;9.32;;;4.75;;
56242;SDS011;42155;53.096;23.226;2023-04-29T04:42:41;8.32;;;4.57;;
56242;SDS011;42155;53.096;23.226;2023-04-29T04:44:41;15.13;;;4.65;;
56242;SDS011;42155;53.096;23.226;2023-04-29T04:46:41;9.15;;;4.68;;
56242;SDS011;42155;53.096;23.226;2023-04-29T04:48:42;7.60;;;4.50;;
56242;SDS011;42155;53.096;23.226;2023-04-29T04:50:42;6.78;;;4.13;;
56242;SDS011;42155;53.096;23.226;2023-04-29T04:52:42;10.52;;;4.82;;
56242;SDS011;42155;53.096;23.226;2023-04-29T04:54:43;13.20;;;5.18;;
56242;SDS011;42155;53.096;23.226;2023-04-29T04:56:44;7.30;;;4.32;;
56242;SDS011;42155;53.096;23.226;2023-04-29T04:58:44;9.20;;;4.63;;
56242;SDS011;42155;53.096;23.226;2023-04-29T05:00:45;9.73;;;5.00;;
56242;SDS011;42155;53.096;23.226;2023-04-29T05:02:45;12.07;;;4.82;;
56242;SDS011;42155;53.096;23.226;2023-04-29T05:04:45;8.23;;;4.78;;
56242;SDS011;42155;53.096;23.226;2023-04-29T05:06:46;10.35;;;4.72;;
56242;SDS011;42155;53.096;23.226;2023-04-29T05:08:46;23.70;;;5.90;;
56242;SDS011;42155;53.096;23.226;2023-04-29T05:10:46;10.63;;;4.18;;
56242;SDS011;42155;53.096;23.226;2023-04-29T05:12:47;9.98;;;4.18;;
56242;SDS011;42155;53.096;23.226;2023-04-29T05:14:51;9.70;;;4.63;;
56242;SDS011;42155;53.096;23.226;2023-04-29T05:16:52;10.13;;;4.97;;
56242;SDS011;42155;53.096;23.226;2023-04-29T05:18:52;10.27;;;5.00;;
56242;SDS011;42155;53.096;23.226;2023-04-29T05:20:52;7.75;;;4.57;;
56242;SDS011;42155;53.096;23.226;2023-04-29T05:22:53;11.13;;;4.22;;
56242;SDS011;42155;53.096;23.226;2023-04-29T05:24:53;8.85;;;4.57;;
56242;SDS011;42155;53.096;23.226;2023-04-29T05:26:53;7.35;;;4.35;;
56242;SDS011;42155;53.096;23.226;2023-04-29T05:28:54;7.22;;;4.40;;
56242;SDS011;42155;53.096;23.226;2023-04-29T05:30:54;9.18;;;4.95;;
56242;SDS011;42155;53.096;23.226;2023-04-29T05:32:54;10.45;;;4.30;;
56242;SDS011;42155;53.096;23.226;2023-04-29T05:34:55;11.35;;;4.50;;
56242;SDS011;42155;53.096;23.226;2023-04-29T05:36:55;9.57;;;4.55;;
56242;SDS011;42155;53.096;23.226;2023-04-29T05:38:55;7.68;;;4.50;;
56242;SDS011;42155;53.096;23.226;2023-04-29T05:40:56;8.27;;;4.13;;
56242;SDS011;42155;53.096;23.226;2023-04-29T05:42:56;8.50;;;4.38;;
56242;SDS011;42155;53.096;23.226;2023-04-29T05:44:57;7.70;;;3.70;;
56242;SDS011;42155;53.096;23.226;2023-04-29T05:46:57;7.63;;;3.65;;
56242;SDS011;42155;53.096;23.226;2023-04-29T05:48:58;9.55;;;3.90;;
56242;SDS011;42155;53.096;23.226;2023-04-29T05:50:58;7.72;;;3.90;;
56242;SDS011;42155;53.096;23.226;2023-04-29T05:52:58;8.48;;;4.03;;
56242;SDS011;42155;53.096;23.226;2023-04-29T05:54:58;16.10;;;4.13;;
56242;SDS011;42155;53.096;23.226;2023-04-29T05:56:59;8.05;;;3.70;;
56242;SDS011;42155;53.096;23.226;2023-04-29T05:59:00;6.53;;;3.42;;
56242;SDS011;42155;53.096;23.226;2023-04-29T06:01:00;5.50;;;3.40;;
56242;SDS011;42155;53.096;23.226;2023-04-29T06:03:01;7.45;;;3.75;;
56242;SDS011;42155;53.096;23.226;2023-04-29T06:05:01;6.32;;;3.78;;
56242;SDS011;42155;53.096;23.226;2023-04-29T06:07:01;5.95;;;3.10;;
56242;SDS011;42155;53.096;23.226;2023-04-29T06:09:02;5.90;;;3.60;;
56242;SDS011;42155;53.096;23.226;2023-04-29T06:11:02;7.97;;;3.50;;
56242;SDS011;42155;53.096;23.226;2023-04-29T06:13:03;6.38;;;3.40;;
56242;SDS011;42155;53.096;23.226;2023-04-29T06:15:03;7.03;;;3.55;;
56242;SDS011;42155;53.096;23.226;2023-04-29T06:17:04;8.05;;;3.97;;
56242;SDS011;42155;53.096;23.226;2023-04-29T06:19:04;5.45;;;3.53;;
56242;SDS011;42155;53.096;23.226;2023-04-29T06:21:05;7.10;;;3.45;;
56242;SDS011;42155;53.096;23.226;2023-04-29T06:23:05;5.90;;;3.25;;
56242;SDS011;42155;53.096;23.226;2023-04-29T06:25:06;8.25;;;4.05;;
56242;SDS011;42155;53.096;23.226;2023-04-29T06:27:06;6.70;;;3.45;;
56242;SDS011;42155;53.096;23.226;2023-04-29T06:29:06;8.00;;;4.05;;
56242;SDS011;42155;53.096;23.226;2023-04-29T06:31:07;6.65;;;3.67;;
56242;SDS011;42155;53.096;23.226;2023-04-29T06:33:07;9.65;;;3.55;;
56242;SDS011;42155;53.096;23.226;2023-04-29T06:35:07;8.80;;;3.80;;
56242;SDS011;42155;53.096;23.226;2023-04-29T06:37:08;9.55;;;3.75;;
56242;SDS011;42155;53.096;23.226;2023-04-29T06:39:08;8.32;;;4.13;;
56242;SDS011;42155;53.096;23.226;2023-04-29T06:41:09;8.23;;;3.75;;
56242;SDS011;42155;53.096;23.226;2023-04-29T06:43:09;9.00;;;3.47;;
56242;SDS011;42155;53.096;23.226;2023-04-29T06:45:09;6.85;;;3.30;;
56242;SDS011;42155;53.096;23.226;2023-04-29T06:47:10;10.43;;;4.32;;
56242;SDS011;42155;53.096;23.226;2023-04-29T06:49:10;8.75;;;3.97;;
56242;SDS011;42155;53.096;23.226;2023-04-29T06:51:10;7.15;;;3.92;;
56242;SDS011;42155;53.096;23.226;2023-04-29T06:53:11;6.40;;;3.72;;
56242;SDS011;42155;53.096;23.226;2023-04-29T06:55:11;6.80;;;3.70;;
56242;SDS011;42155;53.096;23.226;2023-04-29T06:57:11;5.82;;;3.13;;
56242;SDS011;42155;53.096;23.226;2023-04-29T06:59:12;6.22;;;3.10;;
56242;SDS011;42155;53.096;23.226;2023-04-29T07:01:12;6.57;;;2.92;;
56242;SDS011;42155;53.096;23.226;2023-04-29T07:03:13;11.10;;;3.22;;
56242;SDS011;42155;53.096;23.226;2023-04-29T07:05:13;5.95;;;3.10;;
56242;SDS011;42155;53.096;23.226;2023-04-29T07:07:14;6.82;;;3.22;;
56242;SDS011;42155;53.096;23.226;2023-04-29T07:09:14;6.32;;;3.05;;
56242;SDS011;42155;53.096;23.226;2023-04-29T07:11:14;6.47;;;3.33;;
56242;SDS011;42155;53.096;23.226;2023-04-29T07:13:15;7.22;;;3.50;;
56242;SDS011;42155;53.096;23.226;2023-04-29T07:15:15;6.93;;;3.35;;
56242;SDS011;42155;53.096;23.226;2023-04-29T07:17:15;5.30;;;3.05;;
56242;SDS011;42155;53.096;23.226;2023-04-29T07:19:16;7.93;;;3.35;;
56242;SDS011;42155;53.096;23.226;2023-04-29T07:21:16;8.23;;;3.20;;
56242;SDS011;42155;53.096;23.226;2023-04-29T07:23:16;10.02;;;3.42;;
56242;SDS011;42155;53.096;23.226;2023-04-29T07:25:17;6.75;;;3.33;;
56242;SDS011;42155;53.096;23.226;2023-04-29T07:27:17;7.30;;;3.33;;
56242;SDS011;42155;53.096;23.226;2023-04-29T07:29:17;6.15;;;3.33;;
56242;SDS011;42155;53.096;23.226;2023-04-29T07:31:18;5.50;;;3.08;;
56242;SDS011;42155;53.096;23.226;2023-04-29T07:33:18;9.18;;;3.35;;
56242;SDS011;42155;53.096;23.226;2023-04-29T07:35:18;5.00;;;3.05;;
56242;SDS011;42155;53.096;23.226;2023-04-29T07:37:19;6.10;;;3.08;;
56242;SDS011;42155;53.096;23.226;2023-04-29T07:39:19;7.03;;;3.38;;
56242;SDS011;42155;53.096;23.226;2023-04-29T07:41:20;5.38;;;2.97;;
56242;SDS011;42155;53.096;23.226;2023-04-29T07:43:20;4.05;;;2.58;;
56242;SDS011;42155;53.096;23.226;2023-04-29T07:45:21;7.00;;;2.80;;
56242;SDS011;42155;53.096;23.226;2023-04-29T07:47:21;5.20;;;2.70;;
56242;SDS011;42155;53.096;23.226;2023-04-29T07:49:21;5.90;;;3.00;;
56242;SDS011;42155;53.096;23.226;2023-04-29T07:51:22;6.78;;;2.80;;
56242;SDS011;42155;53.096;23.226;2023-04-29T07:53:22;8.85;;;3.00;;
56242;SDS011;42155;53.096;23.226;2023-04-29T07:55:22;6.30;;;3.08;;
56242;SDS011;42155;53.096;23.226;2023-04-29T07:57:22;7.18;;;3.67;;
56242;SDS011;42155;53.096;23.226;2023-04-29T07:59:23;6.32;;;3.28;;
56242;SDS011;42155;53.096;23.226;2023-04-29T08:01:23;6.45;;;2.90;;
56242;SDS011;42155;53.096;23.226;2023-04-29T08:03:24;5.90;;;3.33;;
56242;SDS011;42155;53.096;23.226;2023-04-29T08:05:26;8.73;;;3.33;;
56242;SDS011;42155;53.096;23.226;2023-04-29T08:07:27;8.18;;;3.08;;
56242;SDS011;42155;53.096;23.226;2023-04-29T08:09:27;7.80;;;3.10;;
56242;SDS011;42155;53.096;23.226;2023-04-29T08:11:28;6.70;;;2.90;;
56242;SDS011;42155;53.096;23.226;2023-04-29T08:13:28;6.10;;;2.88;;
56242;SDS011;42155;53.096;23.226;2023-04-29T08:15:28;8.57;;;3.03;;
56242;SDS011;42155;53.096;23.226;2023-04-29T08:17:29;6.75;;;2.97;;
56242;SDS011;42155;53.096;23.226;2023-04-29T08:19:29;5.80;;;2.88;;
56242;SDS011;42155;53.096;23.226;2023-04-29T08:21:29;7.50;;;3.50;;
56242;SDS011;42155;53.096;23.226;2023-04-29T08:23:30;8.55;;;3.38;;
56242;SDS011;42155;53.096;23.226;2023-04-29T08:25:30;6.47;;;3.33;;
56242;SDS011;42155;53.096;23.226;2023-04-29T08:27:30;8.70;;;3.13;;
56242;SDS011;42155;53.096;23.226;2023-04-29T08:29:31;5.88;;;3.17;;
56242;SDS011;42155;53.096;23.226;2023-04-29T08:31:31;5.97;;;3.30;;
56242;SDS011;42155;53.096;23.226;2023-04-29T08:33:32;5.65;;;3.10;;
56242;SDS011;42155;53.096;23.226;2023-04-29T08:35:34;7.47;;;3.20;;
56242;SDS011;42155;53.096;23.226;2023-04-29T08:37:35;8.23;;;3.60;;
56242;SDS011;42155;53.096;23.226;2023-04-29T08:39:35;8.02;;;3.30;;
56242;SDS011;42155;53.096;23.226;2023-04-29T08:41:35;5.82;;;2.78;;
56242;SDS011;42155;53.096;23.226;2023-04-29T08:43:36;8.05;;;3.40;;
56242;SDS011;42155;53.096;23.226;2023-04-29T08:45:36;6.68;;;3.30;;
56242;SDS011;42155;53.096;23.226;2023-04-29T08:47:38;5.25;;;3.00;;
56242;SDS011;42155;53.096;23.226;2023-04-29T08:49:39;5.10;;;2.90;;
56242;SDS011;42155;53.096;23.226;2023-04-29T08:51:40;7.28;;;3.03;;
56242;SDS011;42155;53.096;23.226;2023-04-29T08:53:40;6.38;;;3.60;;
56242;SDS011;42155;53.096;23.226;2023-04-29T08:55:41;8.43;;;3.75;;
56242;SDS011;42155;53.096;23.226;2023-04-29T08:57:45;8.52;;;3.97;;
56242;SDS011;42155;53.096;23.226;2023-04-29T08:59:49;8.68;;;3.42;;
56242;SDS011;42155;53.096;23.226;2023-04-29T09:01:49;8.00;;;3.60;;
56242;SDS011;42155;53.096;23.226;2023-04-29T09:06:29;5.90;;;3.75;;
56242;SDS011;42155;53.096;23.226;2023-04-29T09:08:29;5.72;;;3.05;;
56242;SDS011;42155;53.096;23.226;2023-04-29T09:10:32;9.80;;;3.45;;
56242;SDS011;42155;53.096;23.226;2023-04-29T09:12:34;12.07;;;3.80;;
56242;SDS011;42155;53.096;23.226;2023-04-29T09:14:35;9.43;;;3.33;;
56242;SDS011;42155;53.096;23.226;2023-04-29T09:16:35;5.97;;;3.47;;
56242;SDS011;42155;53.096;23.226;2023-04-29T09:18:46;6.70;;;3.47;;
56242;SDS011;42155;53.096;23.226;2023-04-29T09:20:50;7.25;;;3.92;;
56242;SDS011;42155;53.096;23.226;2023-04-29T09:22:51;9.25;;;4.07;;
56242;SDS011;42155;53.096;23.226;2023-04-29T09:24:53;6.50;;;4.00;;
56242;SDS011;42155;53.096;23.226;2023-04-29T09:26:54;7.28;;;3.70;;
56242;SDS011;42155;53.096;23.226;2023-04-29T09:31:11;7.80;;;3.55;;
56242;SDS011;42155;53.096;23.226;2023-04-29T09:33:12;8.48;;;3.58;;
56242;SDS011;42155;53.096;23.226;2023-04-29T09:35:24;4.13;;;2.78;;
56242;SDS011;42155;53.096;23.226;2023-04-29T09:37:26;4.50;;;3.30;;
56242;SDS011;42155;53.096;23.226;2023-04-29T09:39:26;7.55;;;3.58;;
56242;SDS011;42155;53.096;23.226;2023-04-29T09:44:05;6.72;;;3.22;;
56242;SDS011;42155;53.096;23.226;2023-04-29T09:46:11;7.80;;;3.58;;
56242;SDS011;42155;53.096;23.226;2023-04-29T09:48:12;9.50;;;3.70;;
56242;SDS011;42155;53.096;23.226;2023-04-29T09:50:14;10.52;;;3.80;;
56242;SDS011;42155;53.096;23.226;2023-04-29T09:52:14;8.48;;;3.38;;
56242;SDS011;42155;53.096;23.226;2023-04-29T09:54:22;6.13;;;3.50;;
56242;SDS011;42155;53.096;23.226;2023-04-29T09:56:27;6.90;;;3.58;;
56242;SDS011;42155;53.096;23.226;2023-04-29T09:58:31;7.95;;;3.28;;
56242;SDS011;42155;53.096;23.226;2023-04-29T10:00:33;7.05;;;3.40;;
56242;SDS011;42155;53.096;23.226;2023-04-29T10:02:34;6.72;;;3.25;;
56242;SDS011;42155;53.096;23.226;2023-04-29T10:04:35;7.70;;;3.13;;
56242;SDS011;42155;53.096;23.226;2023-04-29T10:06:39;8.82;;;3.30;;
56242;SDS011;42155;53.096;23.226;2023-04-29T10:08:40;7.13;;;3.40;;
56242;SDS011;42155;53.096;23.226;2023-04-29T10:10:40;7.47;;;3.80;;
56242;SDS011;42155;53.096;23.226;2023-04-29T10:12:41;9.73;;;3.60;;
56242;SDS011;42155;53.096;23.226;2023-04-29T10:14:44;5.40;;;3.30;;
56242;SDS011;42155;53.096;23.226;2023-04-29T10:17:07;9.05;;;3.50;;
56242;SDS011;42155;53.096;23.226;2023-04-29T10:19:25;11.60;;;3.97;;
56242;SDS011;42155;53.096;23.226;2023-04-29T10:21:32;6.63;;;3.55;;
56242;SDS011;42155;53.096;23.226;2023-04-29T10:23:33;13.35;;;4.18;;
56242;SDS011;42155;53.096;23.226;2023-04-29T10:25:35;6.72;;;3.20;;
56242;SDS011;42155;53.096;23.226;2023-04-29T10:27:37;5.85;;;3.22;;
56242;SDS011;42155;53.096;23.226;2023-04-29T10:29:38;6.13;;;3.17;;
56242;SDS011;42155;53.096;23.226;2023-04-29T10:31:40;9.98;;;3.33;;
56242;SDS011;42155;53.096;23.226;2023-04-29T10:33:42;8.13;;;3.25;;
56242;SDS011;42155;53.096;23.226;2023-04-29T10:35:44;7.05;;;3.33;;
56242;SDS011;42155;53.096;23.226;2023-04-29T10:37:47;6.50;;;3.40;;
56242;SDS011;42155;53.096;23.226;2023-04-29T10:40:04;11.18;;;3.15;;
56242;SDS011;42155;53.096;23.226;2023-04-29T10:42:19;7.32;;;3.17;;
56242;SDS011;42155;53.096;23.226;2023-04-29T10:44:30;8.05;;;3.30;;
56242;SDS011;42155;53.096;23.226;2023-04-29T10:46:31;7.78;;;3.50;;
56242;SDS011;42155;53.096;23.226;2023-04-29T10:48:31;6.78;;;3.50;;
56242;SDS011;42155;53.096;23.226;2023-04-29T10:50:32;6.38;;;3.30;;
56242;SDS011;42155;53.096;23.226;2023-04-29T10:52:51;7.25;;;3.22;;
56242;SDS011;42155;53.096;23.226;2023-04-29T10:55:01;8.07;;;3.10;;
56242;SDS011;42155;53.096;23.226;2023-04-29T10:57:02;8.80;;;3.88;;
56242;SDS011;42155;53.096;23.226;2023-04-29T10:59:02;5.75;;;3.25;;
56242;SDS011;42155;53.096;23.226;2023-04-29T11:01:03;8.15;;;3.20;;
56242;SDS011;42155;53.096;23.226;2023-04-29T11:03:04;11.02;;;3.72;;
56242;SDS011;42155;53.096;23.226;2023-04-29T11:05:05;8.10;;;3.53;;
56242;SDS011;42155;53.096;23.226;2023-04-29T11:07:07;8.07;;;3.58;;
56242;SDS011;42155;53.096;23.226;2023-04-29T11:11:22;11.73;;;3.72;;
56242;SDS011;42155;53.096;23.226;2023-04-29T11:13:23;5.85;;;3.22;;
56242;SDS011;42155;53.096;23.226;2023-04-29T11:15:25;10.63;;;3.35;;
56242;SDS011;42155;53.096;23.226;2023-04-29T11:17:25;5.22;;;2.65;;
56242;SDS011;42155;53.096;23.226;2023-04-29T11:19:41;5.20;;;2.97;;
56242;SDS011;42155;53.096;23.226;2023-04-29T11:21:44;5.93;;;3.03;;
56242;SDS011;42155;53.096;23.226;2023-04-29T11:23:45;6.38;;;2.97;;
56242;SDS011;42155;53.096;23.226;2023-04-29T11:25:46;6.95;;;2.97;;
56242;SDS011;42155;53.096;23.226;2023-04-29T11:27:46;6.63;;;2.80;;
56242;SDS011;42155;53.096;23.226;2023-04-29T11:29:48;6.53;;;3.30;;
56242;SDS011;42155;53.096;23.226;2023-04-29T11:31:56;4.32;;;2.72;;
56242;SDS011;42155;53.096;23.226;2023-04-29T11:33:58;6.75;;;3.60;;
56242;SDS011;42155;53.096;23.226;2023-04-29T11:35:59;6.60;;;3.08;;
56242;SDS011;42155;53.096;23.226;2023-04-29T11:37:59;8.82;;;3.15;;
56242;SDS011;42155;53.096;23.226;2023-04-29T11:39:59;6.10;;;3.30;;
56242;SDS011;42155;53.096;23.226;2023-04-29T11:42:03;6.30;;;3.00;;
56242;SDS011;42155;53.096;23.226;2023-04-29T11:44:04;8.63;;;3.22;;
56242;SDS011;42155;53.096;23.226;2023-04-29T11:46:10;5.53;;;3.05;;
56242;SDS011;42155;53.096;23.226;2023-04-29T11:48:24;6.00;;;3.15;;
56242;SDS011;42155;53.096;23.226;2023-04-29T11:50:25;9.43;;;3.72;;
56242;SDS011;42155;53.096;23.226;2023-04-29T11:52:25;10.93;;;6.43;;
56242;SDS011;42155;53.096;23.226;2023-04-29T11:54:28;11.80;;;7.72;;
56242;SDS011;42155;53.096;23.226;2023-04-29T11:56:29;9.52;;;5.00;;
56242;SDS011;42155;53.096;23.226;2023-04-29T11:58:29;10.48;;;4.30;;
56242;SDS011;42155;53.096;23.226;2023-04-29T12:00:30;7.78;;;3.28;;
56242;SDS011;42155;53.096;23.226;2023-04-29T12:02:30;11.20;;;3.40;;
56242;SDS011;42155;53.096;23.226;2023-04-29T12:04:31;5.95;;;3.50;;
56242;SDS011;42155;53.096;23.226;2023-04-29T12:06:32;7.30;;;3.78;;
56242;SDS011;42155;53.096;23.226;2023-04-29T12:08:32;4.72;;;3.15;;
56242;SDS011;42155;53.096;23.226;2023-04-29T12:10:34;5.07;;;2.80;;
56242;SDS011;42155;53.096;23.226;2023-04-29T12:12:35;6.45;;;2.83;;
56242;SDS011;42155;53.096;23.226;2023-04-29T12:14:37;8.18;;;3.50;;